createdAt,value
2023-05-10T00:02:00.156Z,9.46
2023-05-10T00:04:27.856Z,9.43
2023-05-10T00:06:55.476Z,9.44
2023-05-10T00:09:27.641Z,9.42
2023-05-10T00:11:54.552Z,9.38
2023-05-10T00:14:21.464Z,9.37
2023-05-10T00:16:48.708Z,9.32
2023-05-10T00:19:16.604Z,9.31
2023-05-10T00:21:43.459Z,9.34
2023-05-10T00:24:16.562Z,9.36
2023-05-10T00:26:43.480Z,9.41
2023-05-10T00:29:15.966Z,9.48
2023-05-10T00:31:48.424Z,9.48
2023-05-10T00:34:15.387Z,9.46
2023-05-10T00:36:42.370Z,9.44
2023-05-10T00:39:09.212Z,9.43
2023-05-10T00:41:36.121Z,9.47
2023-05-10T00:44:04.677Z,9.52
2023-05-10T00:46:32.099Z,9.51
2023-05-10T00:48:59.140Z,9.50
2023-05-10T00:51:26.422Z,9.51
2023-05-10T00:53:54.150Z,9.51
2023-05-10T00:56:24.006Z,9.52
2023-05-10T00:58:51.055Z,9.54
2023-05-10T01:01:18.194Z,9.54
2023-05-10T01:03:45.465Z,9.52
2023-05-10T01:06:12.912Z,9.48
2023-05-10T01:08:39.941Z,9.43
2023-05-10T01:11:12.374Z,9.39
2023-05-10T01:13:41.769Z,9.37
2023-05-10T01:16:09.399Z,9.35
2023-05-10T01:18:40.498Z,9.40
2023-05-10T01:21:32.885Z,9.45
2023-05-10T01:24:30.988Z,9.48
2023-05-10T01:27:16.880Z,9.51
2023-05-10T01:30:05.090Z,9.50
2023-05-10T01:32:56.103Z,9.52
2023-05-10T01:35:40.824Z,9.49
2023-05-10T01:38:33.837Z,9.46
2023-05-10T01:41:32.959Z,9.45
2023-05-10T01:44:42.217Z,9.50
2023-05-10T01:47:15.370Z,9.50
2023-05-10T01:49:51.078Z,9.53
2023-05-10T01:52:22.126Z,9.55
2023-05-10T01:55:06.160Z,9.53
2023-05-10T01:57:34.918Z,9.52
2023-05-10T02:00:05.400Z,9.50
2023-05-10T02:02:45.437Z,9.47
2023-05-10T02:05:13.838Z,9.41
2023-05-10T02:07:40.613Z,9.37
2023-05-10T02:10:14.566Z,9.33
2023-05-10T02:13:01.528Z,9.28
2023-05-10T02:15:29.145Z,9.26
2023-05-10T02:17:56.499Z,9.21
2023-05-10T02:20:24.432Z,9.19
2023-05-10T02:22:52.503Z,9.19
2023-05-10T02:25:20.845Z,9.19
2023-05-10T02:27:48.496Z,9.18
2023-05-10T02:30:16.867Z,9.19
2023-05-10T02:32:44.757Z,9.22
2023-05-10T02:35:11.735Z,9.23
2023-05-10T02:37:44.032Z,9.25
2023-05-10T02:40:11.804Z,9.29
2023-05-10T02:42:39.453Z,9.33
2023-05-10T02:45:09.259Z,9.35
2023-05-10T02:47:36.550Z,9.36
2023-05-10T02:50:04.065Z,9.37
2023-05-10T02:52:39.377Z,9.40
2023-05-10T02:55:06.685Z,9.43
2023-05-10T02:57:34.798Z,9.46
2023-05-10T03:00:03.759Z,9.50
2023-05-10T03:02:31.572Z,9.52
2023-05-10T03:04:58.643Z,9.55
2023-05-10T03:07:27.162Z,9.55
2023-05-10T03:09:54.041Z,9.55
2023-05-10T03:12:58.805Z,9.58
2023-05-10T03:15:47.878Z,9.62
2023-05-10T03:18:30.383Z,9.64
2023-05-10T03:21:00.264Z,9.70
2023-05-10T03:23:45.891Z,9.70
2023-05-10T03:26:23.512Z,9.74
2023-05-10T03:28:56.066Z,9.79
2023-05-10T03:31:23.647Z,9.83
2023-05-10T03:33:51.597Z,9.86
2023-05-10T03:36:23.537Z,9.86
2023-05-10T03:38:50.711Z,9.89
2023-05-10T03:41:22.670Z,9.91
2023-05-10T03:43:56.041Z,9.93
2023-05-10T03:46:22.964Z,9.97
2023-05-10T03:48:50.693Z,10.01
2023-05-10T03:51:18.379Z,10.01
2023-05-10T03:53:45.307Z,10.02
2023-05-10T03:56:17.345Z,10.08
2023-05-10T03:58:51.018Z,10.11
2023-05-10T04:01:18.071Z,10.13
2023-05-10T04:03:45.829Z,10.17
2023-05-10T04:06:13.959Z,10.19
2023-05-10T04:08:41.015Z,10.23
2023-05-10T04:11:12.144Z,10.24
2023-05-10T04:13:39.289Z,10.24
2023-05-10T04:16:06.739Z,10.26
2023-05-10T04:18:34.049Z,10.30
2023-05-10T04:21:01.167Z,10.34
2023-05-10T04:23:28.561Z,10.37
2023-05-10T04:26:02.614Z,10.38
2023-05-10T04:28:29.779Z,10.42
2023-05-10T04:31:07.554Z,10.50
2023-05-10T04:33:34.840Z,10.58
2023-05-10T04:36:02.147Z,10.61
2023-05-10T04:38:29.614Z,10.67
2023-05-10T04:41:10.396Z,10.73
2023-05-10T04:43:37.960Z,10.77
2023-05-10T04:46:05.274Z,10.85
2023-05-10T04:48:32.348Z,10.93
2023-05-10T04:50:59.320Z,11.04
2023-05-10T04:53:26.219Z,11.12
2023-05-10T04:55:53.104Z,11.16
2023-05-10T04:58:20.611Z,11.20
2023-05-10T05:00:47.484Z,11.31
2023-05-10T05:03:14.403Z,11.42
2023-05-10T05:05:41.383Z,11.57
2023-05-10T05:08:09.423Z,11.72
2023-05-10T05:10:37.496Z,11.84
2023-05-10T05:13:04.321Z,11.96
2023-05-10T05:15:31.938Z,12.12
2023-05-10T05:17:59.145Z,12.24
2023-05-10T05:20:26.129Z,12.36
2023-05-10T05:22:53.746Z,12.49
2023-05-10T05:25:21.200Z,12.64
2023-05-10T05:27:48.385Z,12.68
2023-05-10T05:30:15.414Z,12.71
2023-05-10T05:32:44.510Z,12.72
2023-05-10T05:35:18.975Z,12.84
2023-05-10T05:37:46.076Z,12.97
2023-05-10T05:40:14.390Z,13.03
2023-05-10T05:42:41.868Z,13.15
2023-05-10T05:45:39.778Z,13.28
2023-05-10T05:48:07.580Z,13.31
2023-05-10T05:50:35.869Z,13.35
2023-05-10T05:53:03.249Z,13.33
2023-05-10T05:55:31.910Z,13.30
2023-05-10T05:58:03.072Z,13.36
2023-05-10T06:00:31.587Z,13.41
2023-05-10T06:02:58.647Z,13.51
2023-05-10T06:05:26.377Z,13.57
2023-05-10T06:07:54.376Z,13.71
2023-05-10T06:10:21.317Z,13.84
2023-05-10T06:12:48.728Z,14.03
2023-05-10T06:15:15.810Z,14.23
2023-05-10T06:17:43.812Z,14.28
2023-05-10T06:20:12.419Z,14.29
2023-05-10T06:22:39.534Z,14.41
2023-05-10T06:25:07.194Z,14.54
2023-05-10T06:27:34.900Z,14.67
2023-05-10T06:30:13.503Z,14.74
2023-05-10T06:32:46.446Z,14.76
2023-05-10T06:35:13.549Z,14.77
2023-05-10T06:37:40.403Z,14.83
2023-05-10T06:40:08.073Z,14.91
2023-05-10T06:42:35.852Z,15.03
2023-05-10T06:45:03.547Z,15.12
2023-05-10T06:47:30.992Z,15.19
2023-05-10T06:49:58.461Z,15.20
2023-05-10T06:52:25.407Z,15.13
2023-05-10T06:54:52.269Z,15.06
2023-05-10T06:57:31.138Z,15.08
2023-05-10T06:59:59.512Z,15.04
2023-05-10T07:02:29.925Z,15.00
2023-05-10T07:04:57.025Z,14.89
2023-05-10T07:07:25.123Z,14.99
2023-05-10T07:09:51.971Z,15.15
2023-05-10T07:12:18.952Z,15.29
2023-05-10T07:14:46.387Z,15.30
2023-05-10T07:17:14.250Z,15.30
2023-05-10T07:19:41.565Z,15.37
2023-05-10T07:22:08.419Z,15.39
2023-05-10T07:24:35.380Z,15.43
2023-05-10T07:27:02.207Z,15.63
2023-05-10T07:29:29.262Z,15.89
2023-05-10T07:31:58.717Z,16.09
2023-05-10T07:34:26.032Z,16.18
2023-05-10T07:36:53.503Z,16.05
2023-05-10T07:39:26.510Z,15.89
2023-05-10T07:41:56.235Z,15.65
2023-05-10T07:44:23.521Z,15.45
2023-05-10T07:46:51.769Z,15.27
2023-05-10T07:49:18.924Z,15.12
2023-05-10T07:51:45.816Z,14.94
2023-05-10T07:54:13.149Z,14.85
2023-05-10T07:56:45.223Z,14.95
2023-05-10T07:59:16.282Z,15.06
2023-05-10T08:01:43.279Z,15.06
2023-05-10T08:04:10.455Z,15.02
2023-05-10T08:06:38.698Z,14.99
2023-05-10T08:09:05.654Z,14.90
2023-05-10T08:11:34.348Z,14.82
2023-05-10T08:14:03.069Z,14.68
2023-05-10T08:16:30.105Z,14.47
2023-05-10T08:18:57.256Z,14.38
2023-05-10T08:21:24.198Z,14.28
2023-05-10T08:23:51.406Z,14.23
2023-05-10T08:26:18.323Z,14.28
2023-05-10T08:28:45.316Z,14.35
2023-05-10T08:31:17.653Z,14.40
2023-05-10T08:33:44.872Z,14.47
2023-05-10T08:36:14.499Z,14.55
2023-05-10T08:38:41.484Z,14.67
2023-05-10T08:41:08.549Z,14.89
2023-05-10T08:43:35.920Z,15.15
2023-05-10T08:46:03.458Z,15.37
2023-05-10T08:48:31.564Z,15.59
2023-05-10T08:51:00.498Z,15.76
2023-05-10T08:53:27.776Z,15.89
2023-05-10T08:55:54.685Z,15.98
2023-05-10T08:58:21.771Z,15.99
2023-05-10T09:00:51.402Z,16.03
2023-05-10T09:03:18.529Z,15.97
2023-05-10T09:05:45.555Z,15.80
2023-05-10T09:08:13.522Z,15.62
2023-05-10T09:10:40.829Z,15.45
2023-05-10T09:13:07.768Z,15.27
2023-05-10T09:15:34.822Z,15.13
2023-05-10T09:18:02.842Z,15.01
2023-05-10T09:20:29.873Z,14.96
2023-05-10T09:22:56.800Z,14.99
2023-05-10T09:25:23.645Z,15.09
2023-05-10T09:27:50.544Z,15.24
2023-05-10T09:30:27.058Z,15.38
2023-05-10T09:32:54.212Z,15.49
2023-05-10T09:35:22.838Z,15.73
2023-05-10T09:37:51.609Z,16.11
2023-05-10T09:40:20.432Z,16.57
2023-05-10T09:42:56.879Z,16.83
2023-05-10T09:45:24.926Z,17.01
2023-05-10T09:47:51.822Z,17.40
2023-05-10T09:50:20.073Z,17.86
2023-05-10T09:52:54.273Z,18.10
2023-05-10T09:55:23.310Z,18.10
2023-05-10T09:57:50.630Z,18.18
2023-05-10T10:00:21.380Z,18.20
2023-05-10T10:02:49.144Z,18.11
2023-05-10T10:05:16.277Z,18.03
2023-05-10T10:07:50.835Z,18.07
2023-05-10T10:10:17.796Z,18.26
2023-05-10T10:12:45.107Z,18.51
2023-05-10T10:15:12.317Z,18.93
2023-05-10T10:17:39.901Z,19.22
2023-05-10T10:20:09.339Z,19.31
2023-05-10T10:22:38.399Z,19.10
2023-05-10T10:25:05.692Z,18.87
2023-05-10T10:27:57.266Z,18.52
2023-05-10T10:30:30.093Z,17.86
2023-05-10T10:33:31.604Z,17.17
2023-05-10T10:35:59.417Z,16.82
2023-05-10T10:38:31.533Z,16.78
2023-05-10T10:41:03.252Z,17.02
2023-05-10T10:43:30.870Z,17.29
2023-05-10T10:46:17.537Z,17.53
2023-05-10T10:49:08.674Z,17.70
2023-05-10T10:51:39.683Z,17.83
2023-05-10T10:54:10.819Z,17.84
2023-05-10T10:56:37.768Z,17.79
2023-05-10T10:59:04.974Z,17.75
2023-05-10T11:01:37.976Z,17.83
2023-05-10T11:04:05.139Z,17.95
2023-05-10T11:06:33.895Z,18.04
2023-05-10T11:09:12.020Z,18.17
2023-05-10T11:11:52.496Z,18.31
2023-05-10T11:14:23.175Z,18.45
2023-05-10T11:16:50.215Z,18.52
2023-05-10T11:19:18.179Z,18.65
2023-05-10T11:21:49.832Z,19.07
2023-05-10T11:24:19.092Z,19.19
2023-05-10T11:26:45.982Z,19.00
2023-05-10T11:29:13.721Z,18.81
2023-05-10T11:31:48.021Z,18.65
2023-05-10T11:34:30.037Z,18.36
2023-05-10T11:36:57.060Z,17.88
2023-05-10T11:39:30.781Z,17.61
2023-05-10T11:41:58.293Z,17.37
2023-05-10T11:44:33.169Z,17.00
2023-05-10T11:47:04.093Z,16.75
2023-05-10T11:49:31.842Z,16.58
2023-05-10T11:52:08.150Z,16.48
2023-05-10T11:54:38.178Z,16.41
2023-05-10T11:57:05.590Z,16.33
2023-05-10T11:59:32.934Z,16.30
2023-05-10T12:02:01.344Z,16.27
2023-05-10T12:04:29.976Z,16.22
2023-05-10T12:06:58.743Z,16.24
2023-05-10T12:09:39.399Z,16.29
2023-05-10T12:12:12.135Z,16.34
2023-05-10T12:14:39.327Z,16.39
2023-05-10T12:17:06.561Z,16.49
2023-05-10T12:19:40.324Z,16.64
2023-05-10T12:22:07.261Z,16.70
2023-05-10T12:24:36.935Z,16.71
2023-05-10T12:27:08.575Z,16.86
2023-05-10T12:29:36.982Z,17.11
2023-05-10T12:32:04.075Z,17.33
2023-05-10T12:34:32.345Z,17.42
2023-05-10T12:36:59.338Z,17.48
2023-05-10T12:39:26.261Z,17.47
2023-05-10T12:41:53.487Z,17.25
2023-05-10T12:44:20.467Z,17.12
2023-05-10T12:46:47.423Z,16.95
2023-05-10T12:49:14.441Z,16.76
2023-05-10T12:51:41.561Z,16.60
2023-05-10T12:54:08.518Z,16.27
2023-05-10T12:56:35.370Z,16.00
2023-05-10T12:59:02.185Z,15.91
2023-05-10T13:01:29.871Z,15.92
2023-05-10T13:03:56.756Z,15.93
2023-05-10T13:06:24.335Z,15.93
2023-05-10T13:08:52.625Z,15.83
2023-05-10T13:11:21.112Z,15.67
2023-05-10T13:13:48.104Z,15.40
2023-05-10T13:16:15.113Z,15.25
2023-05-10T13:18:42.241Z,15.17
2023-05-10T13:21:09.209Z,15.01
2023-05-10T13:23:36.268Z,14.85
2023-05-10T13:26:03.470Z,14.80
2023-05-10T13:28:31.247Z,14.77
2023-05-10T13:30:58.190Z,14.73
2023-05-10T13:33:25.752Z,14.69
2023-05-10T13:35:54.412Z,14.71
2023-05-10T13:38:22.886Z,14.77
2023-05-10T13:40:53.440Z,14.80
2023-05-10T13:43:21.011Z,14.84
2023-05-10T13:45:48.125Z,14.93
2023-05-10T13:48:15.650Z,15.09
2023-05-10T13:50:43.332Z,15.26
2023-05-10T13:53:10.243Z,15.33
2023-05-10T13:56:39.156Z,15.46
2023-05-10T13:59:06.611Z,15.88
2023-05-10T14:01:34.242Z,16.20
2023-05-10T14:04:01.483Z,16.52
2023-05-10T14:06:29.076Z,16.73
2023-05-10T14:08:56.965Z,16.95
2023-05-10T14:11:24.736Z,17.19
2023-05-10T14:13:51.871Z,17.31
2023-05-10T14:16:19.777Z,17.29
2023-05-10T14:18:47.137Z,17.26
2023-05-10T14:21:14.247Z,17.21
2023-05-10T14:23:41.279Z,17.12
2023-05-10T14:26:09.714Z,17.04
2023-05-10T14:28:37.206Z,17.03
2023-05-10T14:31:04.475Z,17.01
2023-05-10T14:33:31.416Z,16.99
2023-05-10T14:35:58.473Z,17.01
2023-05-10T14:38:25.406Z,16.96
2023-05-10T14:40:52.297Z,16.84
2023-05-10T14:43:19.610Z,16.80
2023-05-10T14:45:47.092Z,16.78
2023-05-10T14:48:16.764Z,16.79
2023-05-10T14:50:44.494Z,16.85
2023-05-10T14:53:40.013Z,16.87
2023-05-10T14:56:07.709Z,16.80
2023-05-10T14:58:35.923Z,16.77
2023-05-10T15:01:03.253Z,16.74
2023-05-10T15:03:31.387Z,16.62
2023-05-10T15:05:59.398Z,16.58
2023-05-10T15:08:26.520Z,16.58
2023-05-10T15:10:55.950Z,16.51
2023-05-10T15:13:23.133Z,16.44
2023-05-10T15:15:50.664Z,16.40
2023-05-10T15:18:18.794Z,16.30
2023-05-10T15:20:45.691Z,16.21
2023-05-10T15:23:13.000Z,16.01
2023-05-10T15:25:39.983Z,15.75
2023-05-10T15:28:07.325Z,15.63
2023-05-10T15:30:39.375Z,15.56
2023-05-10T15:33:07.557Z,15.50
2023-05-10T15:35:36.645Z,15.40
2023-05-10T15:38:03.499Z,15.27
2023-05-10T15:40:35.887Z,15.01
2023-05-10T15:43:03.190Z,14.90
2023-05-10T15:45:30.299Z,14.80
2023-05-10T15:48:02.301Z,14.67
2023-05-10T15:50:29.696Z,14.55
2023-05-10T15:52:56.874Z,14.46
2023-05-10T15:55:23.870Z,14.43
2023-05-10T15:57:51.768Z,14.33
2023-05-10T16:00:18.802Z,14.24
2023-05-10T16:02:46.273Z,14.21
2023-05-10T16:05:14.751Z,14.16
2023-05-10T16:07:43.219Z,14.07
2023-05-10T16:10:10.699Z,14.01
2023-05-10T16:12:39.040Z,13.95
2023-05-10T16:15:08.188Z,13.90
2023-05-10T16:17:35.368Z,13.87
2023-05-10T16:20:02.459Z,13.80
2023-05-10T16:22:29.938Z,13.79
2023-05-10T16:25:01.971Z,13.83
2023-05-10T16:27:30.493Z,13.84
2023-05-10T16:29:57.594Z,13.81
2023-05-10T16:32:25.109Z,13.76
2023-05-10T16:34:53.306Z,13.71
2023-05-10T16:37:20.380Z,13.63
2023-05-10T16:39:47.891Z,13.57
2023-05-10T16:42:15.042Z,13.51
2023-05-10T16:44:42.254Z,13.51
2023-05-10T16:47:09.315Z,13.52
2023-05-10T16:52:03.659Z,13.50
2023-05-10T16:54:32.939Z,13.44
2023-05-10T16:57:01.277Z,13.34
2023-05-10T16:59:28.628Z,13.27
2023-05-10T17:01:55.844Z,13.21
2023-05-10T17:04:23.013Z,13.14
2023-05-10T17:06:50.097Z,13.07
2023-05-10T17:09:17.038Z,13.02
2023-05-10T17:11:44.026Z,12.97
2023-05-10T17:14:12.259Z,12.91
2023-05-10T17:16:39.223Z,12.83
2023-05-10T17:19:06.420Z,12.75
2023-05-10T17:21:34.925Z,12.69
2023-05-10T17:24:01.755Z,12.63
2023-05-10T17:26:29.477Z,12.57
2023-05-10T17:28:57.478Z,12.53
2023-05-10T17:31:24.824Z,12.52
2023-05-10T17:33:52.358Z,12.51
2023-05-10T17:36:19.299Z,12.46
2023-05-10T17:38:46.354Z,12.39
2023-05-10T17:41:14.273Z,12.36
2023-05-10T17:43:41.620Z,12.35
2023-05-10T17:46:08.642Z,12.31
2023-05-10T17:48:36.748Z,12.27
2023-05-10T17:51:03.765Z,12.25
2023-05-10T17:53:34.592Z,12.20
2023-05-10T17:56:01.500Z,12.15
2023-05-10T17:58:29.943Z,12.09
2023-05-10T18:00:57.213Z,12.04
2023-05-10T18:03:24.322Z,12.01
2023-05-10T18:05:51.221Z,11.98
2023-05-10T18:08:22.560Z,11.97
2023-05-10T18:10:54.632Z,11.96
2023-05-10T18:13:21.852Z,11.95
2023-05-10T18:15:48.802Z,11.92
2023-05-10T18:18:16.681Z,11.86
2023-05-10T18:20:45.683Z,11.79
2023-05-10T18:23:14.475Z,11.73
2023-05-10T18:25:42.210Z,11.72
2023-05-10T18:28:09.347Z,11.72
2023-05-10T18:30:36.904Z,11.66
2023-05-10T18:33:04.344Z,11.63
2023-05-10T18:35:32.048Z,11.60
2023-05-10T18:37:58.968Z,11.61
2023-05-10T18:40:31.489Z,11.60
2023-05-10T18:42:58.431Z,11.60
2023-05-10T18:45:25.593Z,11.56
2023-05-10T18:47:52.598Z,11.50
2023-05-10T18:50:19.592Z,11.49
2023-05-10T18:52:46.638Z,11.47
2023-05-10T18:55:20.068Z,11.47
2023-05-10T18:57:47.384Z,11.45
2023-05-10T19:00:14.542Z,11.44
2023-05-10T19:02:42.750Z,11.42
2023-05-10T19:05:09.995Z,11.39
2023-05-10T19:07:37.746Z,11.37
2023-05-10T19:10:06.123Z,11.36
2023-05-10T19:12:33.450Z,11.33
2023-05-10T19:15:00.520Z,11.32
2023-05-10T19:17:27.509Z,11.30
2023-05-10T19:19:56.756Z,11.26
2023-05-10T19:22:35.965Z,11.19
2023-05-10T19:25:12.742Z,11.17
2023-05-10T19:27:40.069Z,11.13
2023-05-10T19:30:08.337Z,11.09
2023-05-10T19:32:36.695Z,11.08
2023-05-10T19:35:04.346Z,11.07
2023-05-10T19:37:31.479Z,11.07
2023-05-10T19:39:58.482Z,11.06
2023-05-10T19:42:25.637Z,11.06
2023-05-10T19:44:57.917Z,11.05
2023-05-10T19:47:25.108Z,11.04
2023-05-10T19:49:52.364Z,11.02
2023-05-10T19:52:19.359Z,10.98
2023-05-10T19:54:51.450Z,10.92
2023-05-10T19:57:18.326Z,10.87
2023-05-10T19:59:45.555Z,10.82
2023-05-10T20:02:17.937Z,10.78
2023-05-10T20:04:44.807Z,10.73
2023-05-10T20:07:12.283Z,10.71
2023-05-10T20:09:44.511Z,10.67
2023-05-10T20:12:12.306Z,10.63
2023-05-10T20:14:39.341Z,10.59
2023-05-10T20:17:06.518Z,10.56
2023-05-10T20:19:34.644Z,10.51
2023-05-10T20:22:02.150Z,10.47
2023-05-10T20:24:29.847Z,10.42
2023-05-10T20:26:57.283Z,10.39
2023-05-10T20:29:24.104Z,10.36
2023-05-10T20:31:51.346Z,10.33
2023-05-10T20:34:18.505Z,10.27
2023-05-10T20:36:46.106Z,10.23
2023-05-10T20:39:13.794Z,10.16
2023-05-10T20:41:41.364Z,10.07
2023-05-10T20:44:08.481Z,9.99
2023-05-10T20:46:35.734Z,9.92
2023-05-10T20:49:03.897Z,9.87
2023-05-10T20:51:32.962Z,9.84
2023-05-10T20:54:02.164Z,9.77
2023-05-10T20:56:29.991Z,9.70
2023-05-10T20:58:56.866Z,9.63
2023-05-10T21:01:24.464Z,9.59
2023-05-10T21:03:51.946Z,9.54
2023-05-10T21:06:19.413Z,9.50
2023-05-10T21:08:49.973Z,9.46
2023-05-10T21:11:23.160Z,9.41
2023-05-10T21:13:50.825Z,9.37
2023-05-10T21:16:17.682Z,9.32
2023-05-10T21:18:44.753Z,9.28
2023-05-10T21:21:11.929Z,9.22
2023-05-10T21:23:38.901Z,9.18
2023-05-10T21:26:05.893Z,9.12
2023-05-10T21:28:32.923Z,9.10
2023-05-10T21:30:59.854Z,9.06
2023-05-10T21:34:29.969Z,9.05
2023-05-10T21:37:50.299Z,8.99
2023-05-10T21:41:22.071Z,8.99
2023-05-10T21:44:20.614Z,8.93
2023-05-10T21:46:48.044Z,8.90
2023-05-10T21:49:15.006Z,8.89
2023-05-10T21:51:42.281Z,8.86
2023-05-10T21:54:09.343Z,8.84
2023-05-10T21:56:37.377Z,8.84
2023-05-10T21:59:04.698Z,8.84
2023-05-10T22:01:32.908Z,8.83
2023-05-10T22:04:00.153Z,8.80
2023-05-10T22:06:27.178Z,8.77
2023-05-10T22:08:54.499Z,8.75
2023-05-10T22:11:21.363Z,8.74
2023-05-10T22:13:48.451Z,8.72
2023-05-10T22:16:15.641Z,8.73
2023-05-10T22:18:43.315Z,8.71
2023-05-10T22:21:10.369Z,8.72
2023-05-10T22:23:38.122Z,8.75
2023-05-10T22:26:05.018Z,8.78
2023-05-10T22:28:32.496Z,8.79
2023-05-10T22:31:10.947Z,8.79
2023-05-10T22:33:38.205Z,8.80
2023-05-10T22:36:06.082Z,8.79
2023-05-10T22:38:33.275Z,8.79
2023-05-10T22:41:00.454Z,8.79
2023-05-10T22:43:27.343Z,8.79
2023-05-10T22:45:59.677Z,8.78
2023-05-10T22:48:29.960Z,8.78
2023-05-10T22:50:56.940Z,8.77
2023-05-10T22:53:29.500Z,8.77
2023-05-10T22:55:56.589Z,8.75
2023-05-10T22:58:23.563Z,8.75
2023-05-10T23:00:50.623Z,8.73
2023-05-10T23:03:17.557Z,8.69
2023-05-10T23:05:44.721Z,8.69
2023-05-10T23:08:11.642Z,8.69
2023-05-10T23:10:38.709Z,8.70
2023-05-10T23:13:10.697Z,8.69
2023-05-10T23:15:44.781Z,8.68
2023-05-10T23:18:12.393Z,8.68
2023-05-10T23:20:42.652Z,8.66
2023-05-10T23:23:15.488Z,8.63
2023-05-10T23:25:43.037Z,8.60
2023-05-10T23:28:12.961Z,8.59
2023-05-10T23:30:40.275Z,8.58
2023-05-10T23:33:08.039Z,8.58
2023-05-10T23:35:35.234Z,8.57
2023-05-10T23:38:07.608Z,8.59
2023-05-10T23:40:35.052Z,8.57
2023-05-10T23:43:02.283Z,8.55
2023-05-10T23:45:29.418Z,8.53
2023-05-10T23:47:56.558Z,8.50
2023-05-10T23:50:23.470Z,8.49
2023-05-10T23:52:50.340Z,8.46
2023-05-10T23:55:17.796Z,8.42
2023-05-10T23:57:44.920Z,8.38
